LFTH Airport Information

Runway Information
Runway 05 Length 6955 ft width 148 ft
Elevation 6 ft Threshold 722 ft Heading 51
Runway 23 Length 6955 ft Width 148 ft
Elevation 6 ft Threshold 0 ft Heading 231
Runway 14 Length 6234 ft width 164 ft
Elevation 7 ft Threshold 951 ft Heading 135
Runway 32 Length 6234 ft Width 164 ft
Elevation 6 ft Threshold 295 ft Heading 315
Airport Frequencies
Type APP Name TOULON APP Frequency 118.825 MHZ
Type ARSA Name HYERES RDR Frequency 36.255 MHZ
Type ATIS Name HYERES ATI Frequency 129.65 MHZ
Type GND Name HYERES GND Frequency 121.8 MHZ
Type TWR Name HYERES TWR Frequency 121 MHZ
Airport Navaids
Type TACAN Name Hyeres Frequency 109000 KHZ
Type NDB Name Hyeres Frequency 322 KHZ
Airport Weather Information & NOTAM
ADDS - METARS form results

(1244 UTC 23 February 2019)
Data provider http://aviationweather.gov/metar/data/
 
METAR text: LFTH 231230Z AUTO 10011KT CAVOK 17/10 Q1027 TEMPO 09020G30KT
Conditions at: LFTH (HYERES/LE PALYVE, FR) observed 1230 UTC 23 February 2019
Temperature: 17.0°C (63°F)
Dewpoint: 10.0°C (50°F) [RH = 63%]
Pressure (altimeter): 30.32 inches Hg (1027.0 mb)
Winds: from the E (100 degrees) at 13 MPH (11 knots; 5.7 m/s)
Visibility: 6 or more miles (10+ km)
Ceiling: ceiling and visibility are OK
Clouds: unknown
Weather: no significant weather observed at this time

METAR text: LFTH 231200Z AUTO 10011KT CAVOK 17/09 Q1027 TEMPO 09020G30KT
Conditions at: LFTH (HYERES/LE PALYVE, FR) observed 1200 UTC 23 February 2019
Temperature: 17.0°C (63°F)
Dewpoint: 9.0°C (48°F) [RH = 59%]
Pressure (altimeter): 30.32 inches Hg (1027.0 mb)
Winds: from the E (100 degrees) at 13 MPH (11 knots; 5.7 m/s)
Visibility: 6 or more miles (10+ km)
Ceiling: ceiling and visibility are OK
Clouds: unknown
Weather: no significant weather observed at this time

Forecast for: LFTH (HYERES/LE PALYVE, FR)
Text: TAF LFTH 230800Z 2309/2409 VRB02KT CAVOK
Forecast period: 0900 to 1800 UTC 23 February 2019
Forecast type: FROM: standard forecast or significant change
Winds: variable direction winds at 2 MPH (2 knots; 1.0 m/s)
Visibility: 6 or more miles 10+ km)
Ceiling: unknown
Clouds: missing
Weather: NSW  (no significant weather)
Text: TEMPO 2311/2316 09020G30KT
Forecast period: 1100 to 1600 UTC 23 February 2019
Forecast type: TEMPORARY: The following changes expected for less than half the time period
Winds: from the E (90 degrees) at 23 MPH (20 knots; 10.3 m/s)
gusting to 34 MPH (30 knots; 15.4 m/s)
Visibility: missing
Ceiling: unknown
Clouds: missing
Weather: no significant weather forecast for this period
Text: BECMG 2318/2320 36010KT
Forecast period: 1800 UTC 23 February 2019 to 0900 UTC 24 February 2019
Forecast type: BECOMING: Conditions expected to become as follows by 2000 UTC 23 February 2019
Winds: from the N (360 degrees) at 12 MPH (10 knots; 5.1 m/s)
Visibility: 6 or more miles 10+ km)
Ceiling: unknown
Clouds: missing
Weather: NSW  (no significant weather)